sensor_id;sensor_type;location;lat;lon;timestamp;pressure;altitude;pressure_sealevel;temperature;humidity
63954;BME280;50128;52.094;5.232;2023-04-20T00:01:58;99222.0;;;-9.5;38.15
63954;BME280;50128;52.094;5.232;2023-04-20T00:03:34;99234.0;;;-9.5;38.06
63954;BME280;50128;52.094;5.232;2023-04-20T00:05:11;99236.0;;;-9.55;38.21
63954;BME280;50128;52.094;5.232;2023-04-20T00:08:22;99220.0;;;-9.65;38.62
63954;BME280;50128;52.094;5.232;2023-04-20T00:09:59;99220.0;;;-9.68;38.94
63954;BME280;50128;52.094;5.232;2023-04-20T00:11:35;99207.0;;;-9.72;39.15
63954;BME280;50128;52.094;5.232;2023-04-20T00:13:11;99211.0;;;-9.77;39.36
63954;BME280;50128;52.094;5.232;2023-04-20T00:16:23;99206.0;;;-9.85;39.64
63954;BME280;50128;52.094;5.232;2023-04-20T00:17:59;99196.0;;;-9.92;39.92
63954;BME280;50128;52.094;5.232;2023-04-20T00:19:35;99206.0;;;-9.81;40.1
63954;BME280;50128;52.094;5.232;2023-04-20T00:22:47;99187.0;;;-9.9;40.29
63954;BME280;50128;52.094;5.232;2023-04-20T00:24:24;99182.0;;;-10.06;41.08
63954;BME280;50128;52.094;5.232;2023-04-20T00:26:00;99180.0;;;-10.17;41.57
63954;BME280;50128;52.094;5.232;2023-04-20T00:29:12;99172.0;;;-10.1;41.77
63954;BME280;50128;52.094;5.232;2023-04-20T00:30:48;99167.0;;;-10.13;42.37
63954;BME280;50128;52.094;5.232;2023-04-20T00:32:24;99162.0;;;-10.27;42.56
63954;BME280;50128;52.094;5.232;2023-04-20T00:35:36;99160.0;;;-10.22;42.73
63954;BME280;50128;52.094;5.232;2023-04-20T00:37:13;99157.0;;;-10.32;43.16
63954;BME280;50128;52.094;5.232;2023-04-20T00:38:49;99164.0;;;-10.28;43.23
63954;BME280;50128;52.094;5.232;2023-04-20T00:40:25;99160.0;;;-10.31;43.31
63954;BME280;50128;52.094;5.232;2023-04-20T00:43:48;99152.0;;;-10.42;43.49
63954;BME280;50128;52.094;5.232;2023-04-20T00:45:24;99141.0;;;-10.5;43.79
63954;BME280;50128;52.094;5.232;2023-04-20T00:47:00;99141.0;;;-10.52;43.81
63954;BME280;50128;52.094;5.232;2023-04-20T00:50:13;99130.0;;;-10.56;43.89
63954;BME280;50128;52.094;5.232;2023-04-20T00:51:50;99126.0;;;-10.53;44.01
63954;BME280;50128;52.094;5.232;2023-04-20T00:53:27;99125.0;;;-10.58;43.85
63954;BME280;50128;52.094;5.232;2023-04-20T00:55:04;99118.0;;;-10.52;43.87
63954;BME280;50128;52.094;5.232;2023-04-20T00:58:18;99120.0;;;-10.63;44.02
63954;BME280;50128;52.094;5.232;2023-04-20T00:59:54;99137.0;;;-10.46;44.71
63954;BME280;50128;52.094;5.232;2023-04-20T01:01:30;99122.0;;;-10.55;44.57
63954;BME280;50128;52.094;5.232;2023-04-20T01:04:43;99123.0;;;-10.69;44.94
63954;BME280;50128;52.094;5.232;2023-04-20T01:06:19;99121.0;;;-10.72;44.7
63954;BME280;50128;52.094;5.232;2023-04-20T01:07:55;99111.0;;;-10.68;44.62
63954;BME280;50128;52.094;5.232;2023-04-20T01:11:07;99103.0;;;-10.78;45.08
63954;BME280;50128;52.094;5.232;2023-04-20T01:12:43;99103.0;;;-10.83;45.66
63954;BME280;50128;52.094;5.232;2023-04-20T01:14:19;99119.0;;;-10.73;45.51
63954;BME280;50128;52.094;5.232;2023-04-20T01:15:57;99122.0;;;-10.79;46.15
63954;BME280;50128;52.094;5.232;2023-04-20T01:19:11;99099.0;;;-10.91;46.35
63954;BME280;50128;52.094;5.232;2023-04-20T01:20:47;99105.0;;;-10.75;46.12
63954;BME280;50128;52.094;5.232;2023-04-20T01:22:23;99086.0;;;-10.84;46.67
63954;BME280;50128;52.094;5.232;2023-04-20T01:25:35;99085.0;;;-10.83;46.83
63954;BME280;50128;52.094;5.232;2023-04-20T01:27:12;99093.0;;;-10.69;46.8
63954;BME280;50128;52.094;5.232;2023-04-20T01:28:48;99091.0;;;-10.7;46.84
63954;BME280;50128;52.094;5.232;2023-04-20T01:32:01;99087.0;;;-10.62;46.91
63954;BME280;50128;52.094;5.232;2023-04-20T01:33:38;99076.0;;;-10.68;47.3
63954;BME280;50128;52.094;5.232;2023-04-20T01:35:14;99092.0;;;-10.67;47.52
63954;BME280;50128;52.094;5.232;2023-04-20T01:38:28;99063.0;;;-10.73;47.38
63954;BME280;50128;52.094;5.232;2023-04-20T01:40:07;99063.0;;;-10.87;47.97
63954;BME280;50128;52.094;5.232;2023-04-20T01:41:45;99059.0;;;-10.93;48.46
63954;BME280;50128;52.094;5.232;2023-04-20T01:43:21;99066.0;;;-10.79;48.9
63954;BME280;50128;52.094;5.232;2023-04-20T01:46:36;99078.0;;;-10.81;49.16
63954;BME280;50128;52.094;5.232;2023-04-20T01:48:12;99049.0;;;-10.87;49.56
63954;BME280;50128;52.094;5.232;2023-04-20T01:49:48;99069.0;;;-10.75;49.56
63954;BME280;50128;52.094;5.232;2023-04-20T01:53:01;99056.0;;;-10.77;49.64
63954;BME280;50128;52.094;5.232;2023-04-20T01:54:37;99077.0;;;-10.73;50.18
63954;BME280;50128;52.094;5.232;2023-04-20T01:56:13;99072.0;;;-10.81;50.96
63954;BME280;50128;52.094;5.232;2023-04-20T01:57:50;99057.0;;;-10.92;51.39
63954;BME280;50128;52.094;5.232;2023-04-20T02:01:02;99061.0;;;-10.8;51.56
63954;BME280;50128;52.094;5.232;2023-04-20T02:02:38;99044.0;;;-10.79;51.69
63954;BME280;50128;52.094;5.232;2023-04-20T02:04:15;99043.0;;;-10.81;52.32
63954;BME280;50128;52.094;5.232;2023-04-20T02:09:03;99020.0;;;-10.9;53.06
63954;BME280;50128;52.094;5.232;2023-04-20T02:10:39;99032.0;;;-10.77;53.13
63954;BME280;50128;52.094;5.232;2023-04-20T02:13:51;99033.0;;;-10.66;53.25
63954;BME280;50128;52.094;5.232;2023-04-20T02:15:27;99034.0;;;-10.71;53.79
63954;BME280;50128;52.094;5.232;2023-04-20T02:17:03;99031.0;;;-10.6;53.71
63954;BME280;50128;52.094;5.232;2023-04-20T02:20:16;99025.0;;;-10.58;53.91
63954;BME280;50128;52.094;5.232;2023-04-20T02:21:52;99020.0;;;-10.51;53.97
63954;BME280;50128;52.094;5.232;2023-04-20T02:23:28;99021.0;;;-10.48;54.35
63954;BME280;50128;52.094;5.232;2023-04-20T02:25:05;99028.0;;;-10.37;54.3
63954;BME280;50128;52.094;5.232;2023-04-20T02:28:19;99035.0;;;-10.17;54.11
63954;BME280;50128;52.094;5.232;2023-04-20T02:29:55;99028.0;;;-10.21;54.46
63954;BME280;50128;52.094;5.232;2023-04-20T02:31:31;99001.0;;;-10.31;54.55
63954;BME280;50128;52.094;5.232;2023-04-20T02:34:44;99025.0;;;-10.12;54.46
63954;BME280;50128;52.094;5.232;2023-04-20T02:36:20;99008.0;;;-10.08;54.22
63954;BME280;50128;52.094;5.232;2023-04-20T02:37:56;98995.0;;;-10.09;54.29
63954;BME280;50128;52.094;5.232;2023-04-20T02:41:08;98987.0;;;-10.16;54.14
63954;BME280;50128;52.094;5.232;2023-04-20T02:42:44;99002.0;;;-9.82;53.74
63954;BME280;50128;52.094;5.232;2023-04-20T02:44:20;98980.0;;;-9.91;53.55
63954;BME280;50128;52.094;5.232;2023-04-20T02:45:56;98995.0;;;-9.88;53.69
63954;BME280;50128;52.094;5.232;2023-04-20T02:49:09;98986.0;;;-9.9;53.97
63954;BME280;50128;52.094;5.232;2023-04-20T02:50:45;98962.0;;;-10.02;53.92
63954;BME280;50128;52.094;5.232;2023-04-20T02:52:21;98963.0;;;-10.04;54.09
63954;BME280;50128;52.094;5.232;2023-04-20T02:55:33;98971.0;;;-9.99;54.13
63954;BME280;50128;52.094;5.232;2023-04-20T02:57:09;98966.0;;;-9.96;54.25
63954;BME280;50128;52.094;5.232;2023-04-20T02:58:46;98967.0;;;-9.93;54.26
63954;BME280;50128;52.094;5.232;2023-04-20T03:01:58;98963.0;;;-9.88;54.33
63954;BME280;50128;52.094;5.232;2023-04-20T03:03:34;98950.0;;;-9.84;54.08
63954;BME280;50128;52.094;5.232;2023-04-20T03:05:10;98953.0;;;-9.87;54.09
63954;BME280;50128;52.094;5.232;2023-04-20T03:08:24;98958.0;;;-9.72;53.98
63954;BME280;50128;52.094;5.232;2023-04-20T03:10:00;98965.0;;;-9.7;54.37
63954;BME280;50128;52.094;5.232;2023-04-20T03:11:36;98949.0;;;-9.69;54.13
63954;BME280;50128;52.094;5.232;2023-04-20T03:13:13;98938.0;;;-9.8;54.1
63954;BME280;50128;52.094;5.232;2023-04-20T03:16:25;98940.0;;;-9.68;54.19
63954;BME280;50128;52.094;5.232;2023-04-20T03:18:01;98931.0;;;-9.73;54.75
63954;BME280;50128;52.094;5.232;2023-04-20T03:19:37;98922.0;;;-9.67;54.18
63954;BME280;50128;52.094;5.232;2023-04-20T03:22:49;98924.0;;;-9.52;54.13
63954;BME280;50128;52.094;5.232;2023-04-20T03:24:25;98923.0;;;-9.65;54.24
63954;BME280;50128;52.094;5.232;2023-04-20T03:26:01;98917.0;;;-9.48;53.87
63954;BME280;50128;52.094;5.232;2023-04-20T03:29:14;98909.0;;;-9.54;53.72
63954;BME280;50128;52.094;5.232;2023-04-20T03:30:50;98916.0;;;-9.43;53.99
63954;BME280;50128;52.094;5.232;2023-04-20T03:32:26;98914.0;;;-9.42;53.52
63954;BME280;50128;52.094;5.232;2023-04-20T03:34:02;98911.0;;;-9.41;53.53
63954;BME280;50128;52.094;5.232;2023-04-20T03:37:14;98908.0;;;-9.35;53.35
63954;BME280;50128;52.094;5.232;2023-04-20T03:38:50;98909.0;;;-9.27;53.11
63954;BME280;50128;52.094;5.232;2023-04-20T03:40:27;98916.0;;;-9.21;53.0
63954;BME280;50128;52.094;5.232;2023-04-20T03:43:39;98912.0;;;-9.2;53.14
63954;BME280;50128;52.094;5.232;2023-04-20T03:45:16;98914.0;;;-9.17;53.23
63954;BME280;50128;52.094;5.232;2023-04-20T03:46:52;98916.0;;;-9.18;53.37
63954;BME280;50128;52.094;5.232;2023-04-20T03:50:06;98905.0;;;-9.23;53.37
63954;BME280;50128;52.094;5.232;2023-04-20T03:51:42;98908.0;;;-9.13;53.41
63954;BME280;50128;52.094;5.232;2023-04-20T03:53:18;98898.0;;;-9.07;53.25
63954;BME280;50128;52.094;5.232;2023-04-20T03:54:55;98895.0;;;-9.13;53.49
63954;BME280;50128;52.094;5.232;2023-04-20T03:58:07;98895.0;;;-9.02;53.35
63954;BME280;50128;52.094;5.232;2023-04-20T03:59:43;98887.0;;;-9.12;53.54
63954;BME280;50128;52.094;5.232;2023-04-20T04:01:19;98902.0;;;-8.96;53.63
63954;BME280;50128;52.094;5.232;2023-04-20T04:04:31;98900.0;;;-9.06;53.86
63954;BME280;50128;52.094;5.232;2023-04-20T04:06:09;98902.0;;;-8.96;53.73
63954;BME280;50128;52.094;5.232;2023-04-20T04:07:46;98905.0;;;-8.97;53.81
63954;BME280;50128;52.094;5.232;2023-04-20T04:10:58;98894.0;;;-9.02;53.98
63954;BME280;50128;52.094;5.232;2023-04-20T04:12:35;98890.0;;;-9.08;54.36
63954;BME280;50128;52.094;5.232;2023-04-20T04:14:11;98890.0;;;-8.97;54.18
63954;BME280;50128;52.094;5.232;2023-04-20T04:17:23;98886.0;;;-9.02;54.54
63954;BME280;50128;52.094;5.232;2023-04-20T04:19:00;98886.0;;;-9.02;54.37
63954;BME280;50128;52.094;5.232;2023-04-20T04:20:37;98871.0;;;-9.02;54.52
63954;BME280;50128;52.094;5.232;2023-04-20T04:22:13;98865.0;;;-9.02;54.52
63954;BME280;50128;52.094;5.232;2023-04-20T04:25:25;98855.0;;;-8.95;54.29
63954;BME280;50128;52.094;5.232;2023-04-20T04:27:01;98845.0;;;-9.16;54.85
63954;BME280;50128;52.094;5.232;2023-04-20T04:28:37;98855.0;;;-9.07;54.71
63954;BME280;50128;52.094;5.232;2023-04-20T04:31:49;98849.0;;;-9.04;54.62
63954;BME280;50128;52.094;5.232;2023-04-20T04:33:25;98847.0;;;-9.13;54.94
63954;BME280;50128;52.094;5.232;2023-04-20T04:35:02;98846.0;;;-9.05;54.68
63954;BME280;50128;52.094;5.232;2023-04-20T04:38:14;98844.0;;;-9.07;54.69
63954;BME280;50128;52.094;5.232;2023-04-20T04:39:50;98843.0;;;-9.0;54.58
63954;BME280;50128;52.094;5.232;2023-04-20T04:41:26;98852.0;;;-8.91;54.59
63954;BME280;50128;52.094;5.232;2023-04-20T04:43:02;98855.0;;;-8.9;54.55
63954;BME280;50128;52.094;5.232;2023-04-20T04:46:15;98859.0;;;-8.9;54.55
63954;BME280;50128;52.094;5.232;2023-04-20T04:47:52;98840.0;;;-9.01;54.54
63954;BME280;50128;52.094;5.232;2023-04-20T04:49:28;98844.0;;;-8.89;54.65
63954;BME280;50128;52.094;5.232;2023-04-20T04:52:40;98851.0;;;-8.81;54.47
63954;BME280;50128;52.094;5.232;2023-04-20T04:54:16;98850.0;;;-8.82;54.65
63954;BME280;50128;52.094;5.232;2023-04-20T04:55:52;98849.0;;;-8.8;54.9
63954;BME280;50128;52.094;5.232;2023-04-20T04:59:04;98826.0;;;-8.87;54.96
63954;BME280;50128;52.094;5.232;2023-04-20T05:00:41;98846.0;;;-8.82;55.18
63954;BME280;50128;52.094;5.232;2023-04-20T05:02:18;98836.0;;;-8.92;55.87
63954;BME280;50128;52.094;5.232;2023-04-20T05:05:30;98830.0;;;-8.96;55.92
63954;BME280;50128;52.094;5.232;2023-04-20T05:07:06;98835.0;;;-8.94;56.25
63954;BME280;50128;52.094;5.232;2023-04-20T05:08:42;98835.0;;;-8.93;56.53
63954;BME280;50128;52.094;5.232;2023-04-20T05:10:18;98842.0;;;-8.88;56.55
63954;BME280;50128;52.094;5.232;2023-04-20T05:13:30;98847.0;;;-8.84;57.06
63954;BME280;50128;52.094;5.232;2023-04-20T05:15:07;98847.0;;;-8.9;57.44
63954;BME280;50128;52.094;5.232;2023-04-20T05:19:56;98842.0;;;-9.02;58.07
63954;BME280;50128;52.094;5.232;2023-04-20T05:21:32;98849.0;;;-9.12;58.34
63954;BME280;50128;52.094;5.232;2023-04-20T05:26:21;98824.0;;;-9.25;58.61
63954;BME280;50128;52.094;5.232;2023-04-20T05:27:57;98834.0;;;-9.23;58.77
63954;BME280;50128;52.094;5.232;2023-04-20T05:29:33;98846.0;;;-9.07;58.75
63954;BME280;50128;52.094;5.232;2023-04-20T05:31:09;98848.0;;;-8.97;58.66
63954;BME280;50128;52.094;5.232;2023-04-20T05:34:22;98856.0;;;-9.07;59.12
63954;BME280;50128;52.094;5.232;2023-04-20T05:35:58;98838.0;;;-9.2;59.47
63954;BME280;50128;52.094;5.232;2023-04-20T05:37:34;98831.0;;;-9.38;59.81
63954;BME280;50128;52.094;5.232;2023-04-20T05:40:47;98831.0;;;-9.26;59.93
63954;BME280;50128;52.094;5.232;2023-04-20T05:42:23;98846.0;;;-9.13;59.99
63954;BME280;50128;52.094;5.232;2023-04-20T05:43:59;98832.0;;;-9.17;59.84
63954;BME280;50128;52.094;5.232;2023-04-20T05:47:12;98836.0;;;-9.18;60.0
63954;BME280;50128;52.094;5.232;2023-04-20T05:48:49;98841.0;;;-9.11;60.12
63954;BME280;50128;52.094;5.232;2023-04-20T05:50:26;98840.0;;;-9.07;59.85
63954;BME280;50128;52.094;5.232;2023-04-20T05:53:38;98830.0;;;-9.17;59.67
63954;BME280;50128;52.094;5.232;2023-04-20T05:55:14;98832.0;;;-9.11;59.45
63954;BME280;50128;52.094;5.232;2023-04-20T05:56:50;98838.0;;;-9.13;59.54
63954;BME280;50128;52.094;5.232;2023-04-20T05:58:26;98827.0;;;-9.04;59.43
63954;BME280;50128;52.094;5.232;2023-04-20T06:01:39;98841.0;;;-9.01;59.5
63954;BME280;50128;52.094;5.232;2023-04-20T06:03:15;98834.0;;;-8.96;59.2
63954;BME280;50128;52.094;5.232;2023-04-20T06:04:52;98841.0;;;-8.88;58.87
63954;BME280;50128;52.094;5.232;2023-04-20T06:08:04;98822.0;;;-9.12;58.46
63954;BME280;50128;52.094;5.232;2023-04-20T06:09:40;98817.0;;;-9.15;58.61
63954;BME280;50128;52.094;5.232;2023-04-20T06:11:16;98828.0;;;-9.06;58.29
63954;BME280;50128;52.094;5.232;2023-04-20T06:14:28;98819.0;;;-9.04;57.83
63954;BME280;50128;52.094;5.232;2023-04-20T06:16:05;98830.0;;;-8.9;57.53
63954;BME280;50128;52.094;5.232;2023-04-20T06:17:42;98820.0;;;-8.88;57.06
63954;BME280;50128;52.094;5.232;2023-04-20T06:19:18;98826.0;;;-9.0;57.06
63954;BME280;50128;52.094;5.232;2023-04-20T06:22:30;98809.0;;;-9.06;56.89
63954;BME280;50128;52.094;5.232;2023-04-20T06:24:07;98777.0;;;-9.19;57.03
63954;BME280;50128;52.094;5.232;2023-04-20T06:25:43;98807.0;;;-8.9;57.16
63954;BME280;50128;52.094;5.232;2023-04-20T06:28:55;98797.0;;;-8.98;57.52
63954;BME280;50128;52.094;5.232;2023-04-20T06:30:32;98771.0;;;-8.97;57.4
63954;BME280;50128;52.094;5.232;2023-04-20T06:32:08;98788.0;;;-8.94;57.69
63954;BME280;50128;52.094;5.232;2023-04-20T06:35:20;98776.0;;;-8.94;58.0
63954;BME280;50128;52.094;5.232;2023-04-20T06:36:57;98794.0;;;-9.11;58.77
63954;BME280;50128;52.094;5.232;2023-04-20T06:38:33;98782.0;;;-8.98;59.04
63954;BME280;50128;52.094;5.232;2023-04-20T06:41:46;98789.0;;;-9.02;58.92
63954;BME280;50128;52.094;5.232;2023-04-20T06:43:22;98797.0;;;-8.92;59.08
63954;BME280;50128;52.094;5.232;2023-04-20T06:44:58;98789.0;;;-8.99;59.78
63954;BME280;50128;52.094;5.232;2023-04-20T06:46:34;98805.0;;;-8.89;60.41
63954;BME280;50128;52.094;5.232;2023-04-20T06:49:46;98772.0;;;-9.06;61.02
63954;BME280;50128;52.094;5.232;2023-04-20T06:51:22;98777.0;;;-9.2;61.85
63954;BME280;50128;52.094;5.232;2023-04-20T06:52:59;98781.0;;;-9.32;63.37
63954;BME280;50128;52.094;5.232;2023-04-20T06:56:13;98777.0;;;-9.35;66.88
63954;BME280;50128;52.094;5.232;2023-04-20T06:57:49;98797.0;;;-9.41;69.72
63954;BME280;50128;52.094;5.232;2023-04-20T06:59:25;98805.0;;;-9.55;71.36
63954;BME280;50128;52.094;5.232;2023-04-20T07:02:42;98794.0;;;-9.77;75.11
63954;BME280;50128;52.094;5.232;2023-04-20T07:04:19;98796.0;;;-9.86;76.41
63954;BME280;50128;52.094;5.232;2023-04-20T07:05:55;98793.0;;;-10.01;77.83
63954;BME280;50128;52.094;5.232;2023-04-20T07:07:31;98776.0;;;-10.47;79.19
63954;BME280;50128;52.094;5.232;2023-04-20T07:10:43;98806.0;;;-10.35;80.89
63954;BME280;50128;52.094;5.232;2023-04-20T07:12:19;98801.0;;;-10.41;81.94
63954;BME280;50128;52.094;5.232;2023-04-20T07:13:56;98800.0;;;-10.55;82.52
63954;BME280;50128;52.094;5.232;2023-04-20T07:17:08;98802.0;;;-10.65;83.71
63954;BME280;50128;52.094;5.232;2023-04-20T07:18:44;98805.0;;;-10.63;84.91
63954;BME280;50128;52.094;5.232;2023-04-20T07:20:20;98796.0;;;-10.77;85.19
63954;BME280;50128;52.094;5.232;2023-04-20T07:23:32;98795.0;;;-10.69;86.13
63954;BME280;50128;52.094;5.232;2023-04-20T07:25:09;98795.0;;;-10.63;86.26
63954;BME280;50128;52.094;5.232;2023-04-20T07:26:45;98805.0;;;-10.86;85.02
63954;BME280;50128;52.094;5.232;2023-04-20T07:28:21;98787.0;;;-10.94;85.07
63954;BME280;50128;52.094;5.232;2023-04-20T07:31:33;98787.0;;;-10.94;84.82
63954;BME280;50128;52.094;5.232;2023-04-20T07:33:09;98797.0;;;-10.83;84.97
63954;BME280;50128;52.094;5.232;2023-04-20T07:34:45;98782.0;;;-10.86;84.37
63954;BME280;50128;52.094;5.232;2023-04-20T07:37:57;98789.0;;;-10.94;84.28
63954;BME280;50128;52.094;5.232;2023-04-20T07:39:34;98795.0;;;-10.82;84.35
63954;BME280;50128;52.094;5.232;2023-04-20T07:41:10;98802.0;;;-10.73;84.09
63954;BME280;50128;52.094;5.232;2023-04-20T07:44:22;98805.0;;;-10.81;83.87
63954;BME280;50128;52.094;5.232;2023-04-20T07:45:58;98796.0;;;-10.73;84.31
63954;BME280;50128;52.094;5.232;2023-04-20T07:47:35;98791.0;;;-10.79;82.69
63954;BME280;50128;52.094;5.232;2023-04-20T07:50:48;98795.0;;;-10.74;82.96
63954;BME280;50128;52.094;5.232;2023-04-20T07:52:24;98792.0;;;-10.83;82.68
63954;BME280;50128;52.094;5.232;2023-04-20T07:54:00;98792.0;;;-10.77;82.89
63954;BME280;50128;52.094;5.232;2023-04-20T07:55:36;98793.0;;;-10.71;82.35
63954;BME280;50128;52.094;5.232;2023-04-20T07:58:48;98799.0;;;-10.72;83.15
63954;BME280;50128;52.094;5.232;2023-04-20T08:00:25;98805.0;;;-10.75;82.72
63954;BME280;50128;52.094;5.232;2023-04-20T08:02:01;98787.0;;;-10.93;82.2
63954;BME280;50128;52.094;5.232;2023-04-20T08:05:14;98793.0;;;-10.77;82.84
63954;BME280;50128;52.094;5.232;2023-04-20T08:06:50;98794.0;;;-10.91;82.08
63954;BME280;50128;52.094;5.232;2023-04-20T08:08:26;98787.0;;;-10.97;82.68
63954;BME280;50128;52.094;5.232;2023-04-20T08:11:39;98797.0;;;-10.8;83.94
63954;BME280;50128;52.094;5.232;2023-04-20T08:13:15;98798.0;;;-10.66;83.0
63954;BME280;50128;52.094;5.232;2023-04-20T08:14:51;98800.0;;;-10.59;82.99
63954;BME280;50128;52.094;5.232;2023-04-20T08:16:29;98788.0;;;-10.68;82.56
63954;BME280;50128;52.094;5.232;2023-04-20T08:19:41;98774.0;;;-10.65;82.57
63954;BME280;50128;52.094;5.232;2023-04-20T08:21:17;98792.0;;;-10.59;82.57
63954;BME280;50128;52.094;5.232;2023-04-20T08:22:53;98767.0;;;-10.87;83.42
63954;BME280;50128;52.094;5.232;2023-04-20T08:26:05;98773.0;;;-10.77;83.76
63954;BME280;50128;52.094;5.232;2023-04-20T08:27:42;98761.0;;;-10.84;83.83
63954;BME280;50128;52.094;5.232;2023-04-20T08:29:18;98764.0;;;-10.77;83.27
63954;BME280;50128;52.094;5.232;2023-04-20T08:32:30;98775.0;;;-10.74;81.92
63954;BME280;50128;52.094;5.232;2023-04-20T08:34:06;98756.0;;;-10.64;81.97
63954;BME280;50128;52.094;5.232;2023-04-20T08:35:43;98743.0;;;-10.52;82.68
63954;BME280;50128;52.094;5.232;2023-04-20T08:39:04;98759.0;;;-10.5;80.72
63954;BME280;50128;52.094;5.232;2023-04-20T08:40:41;98758.0;;;-10.51;80.22
63954;BME280;50128;52.094;5.232;2023-04-20T08:42:19;98758.0;;;-10.34;80.12
63954;BME280;50128;52.094;5.232;2023-04-20T08:43:55;98756.0;;;-10.15;79.22
63954;BME280;50128;52.094;5.232;2023-04-20T08:47:08;98758.0;;;-9.77;79.69
63954;BME280;50128;52.094;5.232;2023-04-20T08:48:45;98766.0;;;-9.23;77.02
63954;BME280;50128;52.094;5.232;2023-04-20T08:50:21;98752.0;;;-9.16;74.28
63954;BME280;50128;52.094;5.232;2023-04-20T08:53:34;98751.0;;;-9.25;72.66
63954;BME280;50128;52.094;5.232;2023-04-20T08:55:14;98745.0;;;-9.21;75.74
63954;BME280;50128;52.094;5.232;2023-04-20T08:56:51;98750.0;;;-9.17;73.64
63954;BME280;50128;52.094;5.232;2023-04-20T08:58:30;98747.0;;;-9.25;74.99
63954;BME280;50128;52.094;5.232;2023-04-20T09:02:35;98744.0;;;-9.43;73.83
63954;BME280;50128;52.094;5.232;2023-04-20T09:06:02;98745.0;;;-9.38;73.77
63954;BME280;50128;52.094;5.232;2023-04-20T09:07:39;98752.0;;;-9.42;73.33
63954;BME280;50128;52.094;5.232;2023-04-20T09:09:15;98743.0;;;-9.56;73.55
63954;BME280;50128;52.094;5.232;2023-04-20T09:10:52;98749.0;;;-9.51;72.75
63954;BME280;50128;52.094;5.232;2023-04-20T09:14:16;98745.0;;;-9.56;74.27
63954;BME280;50128;52.094;5.232;2023-04-20T09:15:52;98740.0;;;-9.6;74.03
63954;BME280;50128;52.094;5.232;2023-04-20T09:17:31;98732.0;;;-9.48;75.66
63954;BME280;50128;52.094;5.232;2023-04-20T09:20:44;98724.0;;;-9.27;74.49
63954;BME280;50128;52.094;5.232;2023-04-20T09:22:28;98724.0;;;-9.26;74.53
63954;BME280;50128;52.094;5.232;2023-04-20T09:24:06;98734.0;;;-9.13;74.37
63954;BME280;50128;52.094;5.232;2023-04-20T09:25:43;98721.0;;;-8.96;75.12
63954;BME280;50128;52.094;5.232;2023-04-20T09:28:55;98728.0;;;-8.82;74.66
63954;BME280;50128;52.094;5.232;2023-04-20T09:30:36;98732.0;;;-8.65;73.61
63954;BME280;50128;52.094;5.232;2023-04-20T09:32:20;98737.0;;;-8.42;72.5
63954;BME280;50128;52.094;5.232;2023-04-20T09:33:58;98733.0;;;-8.32;70.66
63954;BME280;50128;52.094;5.232;2023-04-20T09:37:13;98733.0;;;-8.33;72.73
63954;BME280;50128;52.094;5.232;2023-04-20T09:39:07;98728.0;;;-8.52;71.87
63954;BME280;50128;52.094;5.232;2023-04-20T09:40:44;98717.0;;;-8.4;72.95
63954;BME280;50128;52.094;5.232;2023-04-20T09:42:21;98727.0;;;-8.21;73.48
63954;BME280;50128;52.094;5.232;2023-04-20T09:45:38;98709.0;;;-8.25;71.05
63954;BME280;50128;52.094;5.232;2023-04-20T09:47:16;98693.0;;;-8.31;72.09
63954;BME280;50128;52.094;5.232;2023-04-20T09:48:52;98715.0;;;-8.22;71.42
63954;BME280;50128;52.094;5.232;2023-04-20T09:52:06;98718.0;;;-7.96;71.66
63954;BME280;50128;52.094;5.232;2023-04-20T09:53:44;98705.0;;;-7.9;70.8
63954;BME280;50128;52.094;5.232;2023-04-20T09:55:20;98717.0;;;-8.0;70.61
63954;BME280;50128;52.094;5.232;2023-04-20T09:56:59;98700.0;;;-8.25;71.13
63954;BME280;50128;52.094;5.232;2023-04-20T10:00:13;98712.0;;;-8.17;71.27
63954;BME280;50128;52.094;5.232;2023-04-20T10:01:49;98698.0;;;-8.16;71.41
63954;BME280;50128;52.094;5.232;2023-04-20T10:03:25;98694.0;;;-8.22;71.23
63954;BME280;50128;52.094;5.232;2023-04-20T10:06:51;98699.0;;;-8.13;71.25
63954;BME280;50128;52.094;5.232;2023-04-20T10:08:38;98697.0;;;-8.32;70.19
63954;BME280;50128;52.094;5.232;2023-04-20T10:10:15;98692.0;;;-8.4;71.73
63954;BME280;50128;52.094;5.232;2023-04-20T10:11:51;98683.0;;;-8.61;71.39
63954;BME280;50128;52.094;5.232;2023-04-20T10:15:09;98694.0;;;-8.63;71.62
63954;BME280;50128;52.094;5.232;2023-04-20T10:16:57;98698.0;;;-8.63;72.88
63954;BME280;50128;52.094;5.232;2023-04-20T10:18:34;98690.0;;;-8.6;72.53
63954;BME280;50128;52.094;5.232;2023-04-20T10:20:20;98690.0;;;-8.44;72.89
63954;BME280;50128;52.094;5.232;2023-04-20T10:21:56;98676.0;;;-8.59;71.33
63954;BME280;50128;52.094;5.232;2023-04-20T10:25:14;98710.0;;;-8.32;72.41
63954;BME280;50128;52.094;5.232;2023-04-20T10:26:51;98678.0;;;-8.54;71.27
63954;BME280;50128;52.094;5.232;2023-04-20T10:28:37;98708.0;;;-8.31;71.14
63954;BME280;50128;52.094;5.232;2023-04-20T10:31:50;98672.0;;;-8.6;71.12
63954;BME280;50128;52.094;5.232;2023-04-20T10:33:27;98674.0;;;-8.56;71.24
63954;BME280;50128;52.094;5.232;2023-04-20T10:35:05;98680.0;;;-8.6;71.36
63954;BME280;50128;52.094;5.232;2023-04-20T10:36:42;98682.0;;;-8.7;72.83
63954;BME280;50128;52.094;5.232;2023-04-20T10:40:05;98681.0;;;-8.84;71.83
63954;BME280;50128;52.094;5.232;2023-04-20T10:41:51;98689.0;;;-8.79;72.25
63954;BME280;50128;52.094;5.232;2023-04-20T10:43:33;98702.0;;;-8.71;72.27
63954;BME280;50128;52.094;5.232;2023-04-20T10:45:10;98690.0;;;-8.75;72.56
63954;BME280;50128;52.094;5.232;2023-04-20T10:48:24;98686.0;;;-8.44;72.3
63954;BME280;50128;52.094;5.232;2023-04-20T10:50:05;98684.0;;;-8.36;71.99
63954;BME280;50128;52.094;5.232;2023-04-20T10:51:45;98674.0;;;-8.3;71.33
63954;BME280;50128;52.094;5.232;2023-04-20T10:53:22;98688.0;;;-8.1;69.63
63954;BME280;50128;52.094;5.232;2023-04-20T10:56:37;98683.0;;;-8.01;69.78
63954;BME280;50128;52.094;5.232;2023-04-20T10:58:21;98671.0;;;-8.05;69.49
63954;BME280;50128;52.094;5.232;2023-04-20T10:59:58;98671.0;;;-8.06;69.44
63954;BME280;50128;52.094;5.232;2023-04-20T11:03:11;98664.0;;;-8.08;68.97
63954;BME280;50128;52.094;5.232;2023-04-20T11:04:47;98669.0;;;-7.98;69.19
63954;BME280;50128;52.094;5.232;2023-04-20T11:06:23;98673.0;;;-7.82;68.75
63954;BME280;50128;52.094;5.232;2023-04-20T11:07:59;98663.0;;;-7.91;68.45
63954;BME280;50128;52.094;5.232;2023-04-20T11:11:21;98656.0;;;-7.98;68.16
63954;BME280;50128;52.094;5.232;2023-04-20T11:12:58;98652.0;;;-7.95;68.36
63954;BME280;50128;52.094;5.232;2023-04-20T11:14:36;98658.0;;;-7.75;68.55
63954;BME280;50128;52.094;5.232;2023-04-20T11:17:51;98634.0;;;-7.71;67.6
63954;BME280;50128;52.094;5.232;2023-04-20T11:19:29;98655.0;;;-7.37;67.27
63954;BME280;50128;52.094;5.232;2023-04-20T11:21:05;98640.0;;;-7.33;68.44